createdAt,value
2022-12-08T00:01:12.147Z,5.52
2022-12-08T00:04:14.307Z,5.16
2022-12-08T00:07:34.961Z,6.27
2022-12-08T00:10:52.037Z,6.01
2022-12-08T00:13:53.999Z,5.74
2022-12-08T00:16:56.421Z,6.27
2022-12-08T00:19:58.568Z,6.04
2022-12-08T00:23:00.373Z,6.31
2022-12-08T00:26:03.414Z,5.69
2022-12-08T00:29:05.401Z,6.10
2022-12-08T00:32:07.439Z,5.92
2022-12-08T00:35:09.482Z,5.51
2022-12-08T00:38:11.293Z,6.31
2022-12-08T00:41:14.971Z,5.91
2022-12-08T00:44:18.834Z,5.74
2022-12-08T00:47:24.650Z,6.27
2022-12-08T00:50:26.901Z,5.75
2022-12-08T00:53:28.833Z,5.63
2022-12-08T00:56:30.761Z,6.09
2022-12-08T00:59:32.612Z,6.12
2022-12-08T01:02:34.790Z,5.65
2022-12-08T01:05:36.629Z,5.14
2022-12-08T01:08:38.917Z,5.76
2022-12-08T01:11:40.817Z,5.67
2022-12-08T01:14:42.700Z,4.69
2022-12-08T01:17:44.502Z,5.28
2022-12-08T01:20:46.689Z,4.67
2022-12-08T01:23:48.563Z,4.91
2022-12-08T01:26:50.673Z,6.17
2022-12-08T01:29:52.510Z,6.00
2022-12-08T01:32:54.572Z,5.72
2022-12-08T01:35:56.517Z,5.95
2022-12-08T01:38:59.285Z,5.52
2022-12-08T01:42:01.136Z,4.72
2022-12-08T01:45:04.487Z,5.57
2022-12-08T01:48:07.318Z,5.63
2022-12-08T01:51:09.287Z,5.88
2022-12-08T01:54:11.398Z,5.85
2022-12-08T01:57:15.279Z,5.14
2022-12-08T02:00:17.900Z,5.22
2022-12-08T02:03:34.719Z,5.34
2022-12-08T02:06:38.539Z,4.74
2022-12-08T02:09:40.505Z,5.40
2022-12-08T02:12:42.360Z,4.46
2022-12-08T02:15:47.251Z,4.11
2022-12-08T02:19:29.642Z,4.17
2022-12-08T02:22:44.646Z,3.80
2022-12-08T02:25:46.671Z,3.57
2022-12-08T02:29:07.416Z,3.80
2022-12-08T02:32:44.876Z,3.93
2022-12-08T02:35:53.122Z,3.94
2022-12-08T02:39:04.161Z,3.23
2022-12-08T02:42:13.977Z,4.88
2022-12-08T02:45:22.124Z,4.06
2022-12-08T02:48:23.958Z,5.14
2022-12-08T02:51:25.995Z,4.83
2022-12-08T02:54:27.928Z,4.37
2022-12-08T02:57:48.733Z,4.10
2022-12-08T03:00:58.357Z,4.10
2022-12-08T03:04:04.027Z,3.59
2022-12-08T03:07:13.256Z,4.28
2022-12-08T03:10:18.169Z,3.80
2022-12-08T03:13:21.608Z,3.59
2022-12-08T03:16:24.975Z,4.15
2022-12-08T03:19:27.788Z,3.82
2022-12-08T03:22:29.759Z,3.68
2022-12-08T03:25:32.246Z,4.07
2022-12-08T03:28:34.207Z,4.37
2022-12-08T03:31:37.632Z,4.26
2022-12-08T03:34:39.854Z,4.43
2022-12-08T03:37:41.855Z,3.96
2022-12-08T03:40:44.274Z,3.42
2022-12-08T03:43:53.268Z,3.84
2022-12-08T03:46:55.131Z,4.04
2022-12-08T03:49:56.949Z,3.65
2022-12-08T03:52:58.766Z,3.73
2022-12-08T03:56:00.793Z,3.96
2022-12-08T03:59:03.191Z,3.69
2022-12-08T04:02:05.222Z,3.73
2022-12-08T04:05:07.248Z,4.42
2022-12-08T04:08:09.231Z,4.05
2022-12-08T04:11:11.275Z,4.61
2022-12-08T04:14:13.188Z,4.02
2022-12-08T04:17:15.073Z,3.88
2022-12-08T04:20:16.956Z,4.16
2022-12-08T04:23:18.828Z,4.65
2022-12-08T04:26:20.723Z,4.11
2022-12-08T04:29:22.614Z,4.70
2022-12-08T04:32:24.469Z,4.49
2022-12-08T04:35:26.311Z,4.05
2022-12-08T04:38:28.630Z,4.11
2022-12-08T04:41:30.646Z,3.68
2022-12-08T04:44:32.512Z,3.69
2022-12-08T04:47:34.610Z,3.79
2022-12-08T04:50:36.469Z,3.87
2022-12-08T04:53:43.413Z,3.95
2022-12-08T04:56:48.077Z,3.92
2022-12-08T04:59:49.932Z,3.58
2022-12-08T05:02:51.875Z,4.48
2022-12-08T05:05:53.771Z,3.98
2022-12-08T05:08:55.651Z,4.65
2022-12-08T05:11:57.655Z,4.89
2022-12-08T05:14:59.546Z,4.24
2022-12-08T05:18:01.372Z,4.16
2022-12-08T05:21:03.369Z,3.79
2022-12-08T05:24:05.535Z,4.72
2022-12-08T05:27:07.444Z,4.58
2022-12-08T05:30:09.384Z,3.87
2022-12-08T05:33:11.343Z,4.40
2022-12-08T05:36:14.108Z,4.21
2022-12-08T05:39:15.903Z,4.17
2022-12-08T05:42:23.180Z,4.65
2022-12-08T05:45:26.666Z,5.01
2022-12-08T05:48:28.595Z,4.58
2022-12-08T05:51:30.429Z,3.94
2022-12-08T05:54:32.375Z,3.68
2022-12-08T05:57:34.365Z,3.73
2022-12-08T06:00:36.252Z,4.02
2022-12-08T06:03:38.221Z,4.56
2022-12-08T06:06:42.795Z,4.68
2022-12-08T06:09:44.767Z,4.82
2022-12-08T06:12:46.599Z,5.40
2022-12-08T06:15:48.568Z,4.79
2022-12-08T06:18:50.559Z,5.22
2022-12-08T06:21:52.540Z,4.09
2022-12-08T06:24:54.597Z,4.50
2022-12-08T06:27:56.428Z,4.33
2022-12-08T06:30:58.714Z,4.26
2022-12-08T06:34:00.673Z,4.25
2022-12-08T06:37:02.549Z,4.26
2022-12-08T06:40:05.025Z,4.12
2022-12-08T06:43:07.350Z,3.82
2022-12-08T06:46:10.858Z,4.50
2022-12-08T06:49:12.993Z,4.08
2022-12-08T06:52:15.357Z,4.70
2022-12-08T06:55:42.728Z,4.48
2022-12-08T06:58:39.592Z,4.57
2022-12-08T07:01:41.621Z,4.69
2022-12-08T07:04:43.853Z,4.82
2022-12-08T07:07:45.811Z,4.35
2022-12-08T07:10:47.742Z,4.51
2022-12-08T07:13:50.722Z,4.73
2022-12-08T07:16:52.804Z,5.73
2022-12-08T07:19:54.695Z,6.18
2022-12-08T07:22:56.677Z,4.55
2022-12-08T07:26:02.892Z,4.73
2022-12-08T07:29:05.150Z,4.61
2022-12-08T07:32:07.875Z,6.07
2022-12-08T07:35:09.976Z,5.91
2022-12-08T07:38:12.294Z,5.29
2022-12-08T07:41:15.094Z,4.63
2022-12-08T07:44:17.039Z,4.96
2022-12-08T07:47:18.867Z,4.71
2022-12-08T07:50:20.709Z,4.76
2022-12-08T07:53:22.678Z,4.89
2022-12-08T07:56:24.565Z,4.96
2022-12-08T07:59:26.934Z,5.86
2022-12-08T08:02:29.048Z,5.29
2022-12-08T08:05:30.978Z,5.09
2022-12-08T08:08:33.124Z,4.59
2022-12-08T08:11:35.319Z,5.83
2022-12-08T08:14:37.532Z,5.39
2022-12-08T08:17:39.466Z,5.88
2022-12-08T08:20:41.467Z,5.63
2022-12-08T08:23:43.469Z,6.49
2022-12-08T08:26:45.634Z,7.22
2022-12-08T08:29:47.510Z,7.72
2022-12-08T08:32:49.512Z,6.96
2022-12-08T08:35:51.517Z,6.63
2022-12-08T08:38:53.515Z,6.87
2022-12-08T08:41:55.448Z,6.32
2022-12-08T08:44:57.413Z,6.89
2022-12-08T08:47:59.991Z,7.00
2022-12-08T08:51:12.165Z,6.83
2022-12-08T08:54:14.417Z,6.03
2022-12-08T08:57:18.468Z,6.39
2022-12-08T09:00:24.210Z,6.80
2022-12-08T09:03:26.298Z,6.48
2022-12-08T09:06:28.713Z,7.11
2022-12-08T09:09:31.979Z,6.56
2022-12-08T09:12:34.189Z,7.21
2022-12-08T09:15:36.378Z,8.53
2022-12-08T09:18:38.806Z,8.49
2022-12-08T09:21:41.505Z,5.89
2022-12-08T09:24:43.735Z,6.28
2022-12-08T09:27:45.795Z,6.43
2022-12-08T09:30:48.208Z,6.12
2022-12-08T09:33:53.191Z,7.76
2022-12-08T09:36:55.220Z,6.82
2022-12-08T09:39:57.207Z,7.88
2022-12-08T09:43:03.655Z,7.15
2022-12-08T09:46:06.261Z,6.31
2022-12-08T09:49:11.849Z,6.35
2022-12-08T09:52:16.317Z,7.11
2022-12-08T09:55:23.391Z,7.73
2022-12-08T09:58:28.392Z,6.39
2022-12-08T10:01:31.519Z,6.87
2022-12-08T10:04:36.985Z,6.15
2022-12-08T10:07:44.380Z,6.57
2022-12-08T10:10:59.378Z,6.77
2022-12-08T10:14:22.823Z,6.41
2022-12-08T10:17:28.016Z,7.37
2022-12-08T10:20:36.232Z,8.35
2022-12-08T10:23:38.939Z,8.65
2022-12-08T10:26:40.939Z,8.00
2022-12-08T10:29:42.994Z,6.29
2022-12-08T10:32:46.150Z,6.65
2022-12-08T10:35:48.011Z,7.15
2022-12-08T10:38:49.880Z,7.50
2022-12-08T10:41:51.802Z,7.47
2022-12-08T10:44:53.827Z,7.49
2022-12-08T10:48:00.180Z,6.99
2022-12-08T10:51:05.261Z,8.44
2022-12-08T10:54:26.289Z,6.94
2022-12-08T10:57:28.239Z,8.09
2022-12-08T11:00:30.413Z,7.49
2022-12-08T11:03:36.454Z,7.78
2022-12-08T11:06:38.939Z,7.13
2022-12-08T11:09:40.874Z,6.94
2022-12-08T11:12:43.802Z,7.16
2022-12-08T11:15:45.795Z,8.00
2022-12-08T11:18:49.921Z,8.70
2022-12-08T11:21:51.752Z,7.51
2022-12-08T11:25:12.933Z,7.77
2022-12-08T11:28:14.769Z,8.19
2022-12-08T11:31:37.053Z,8.51
2022-12-08T11:34:41.620Z,8.33
2022-12-08T11:37:43.591Z,8.18
2022-12-08T11:40:45.572Z,6.79
2022-12-08T11:43:53.050Z,7.91
2022-12-08T11:46:57.154Z,6.70
2022-12-08T11:50:18.258Z,6.72
2022-12-08T11:53:51.098Z,6.53
2022-12-08T11:56:56.545Z,7.18
2022-12-08T11:59:58.403Z,7.34
2022-12-08T12:03:03.832Z,7.92
2022-12-08T12:06:46.499Z,6.74
2022-12-08T12:10:02.212Z,7.46
2022-12-08T12:13:19.304Z,7.14
2022-12-08T12:16:39.854Z,8.62
2022-12-08T12:19:41.824Z,7.50
2022-12-08T12:22:44.247Z,8.39
2022-12-08T12:25:46.567Z,8.37
2022-12-08T12:28:54.997Z,8.25
2022-12-08T12:31:59.377Z,7.54
2022-12-08T12:35:03.499Z,8.15
2022-12-08T12:38:27.080Z,8.07
2022-12-08T12:41:44.004Z,7.47
2022-12-08T12:44:46.294Z,7.61
2022-12-08T12:47:55.594Z,7.89
2022-12-08T12:50:58.220Z,7.98
2022-12-08T12:54:22.795Z,8.44
2022-12-08T12:57:25.778Z,7.18
2022-12-08T13:00:27.974Z,7.48
2022-12-08T13:03:30.020Z,8.65
2022-12-08T13:06:44.723Z,6.95
2022-12-08T13:09:46.680Z,7.24
2022-12-08T13:13:01.886Z,8.78
2022-12-08T13:16:18.436Z,8.34
2022-12-08T13:19:21.027Z,7.80
2022-12-08T13:22:41.839Z,6.95
2022-12-08T13:25:43.692Z,7.65
2022-12-08T13:29:04.306Z,7.04
2022-12-08T13:32:12.423Z,7.96
2022-12-08T13:35:14.280Z,7.46
2022-12-08T13:38:17.090Z,7.49
2022-12-08T13:41:20.870Z,7.64
2022-12-08T13:58:17.511Z,8.05
2022-12-08T14:01:20.417Z,7.08
2022-12-08T14:04:42.558Z,7.92
2022-12-08T14:07:44.558Z,6.82
2022-12-08T14:10:47.454Z,7.26
2022-12-08T14:13:49.659Z,7.43
2022-12-08T14:16:55.880Z,6.91
2022-12-08T14:20:13.388Z,6.49
2022-12-08T14:23:19.413Z,6.97
2022-12-08T14:26:21.441Z,6.66
2022-12-08T14:29:46.687Z,6.70
2022-12-08T14:32:55.190Z,7.40
2022-12-08T14:35:57.459Z,8.04
2022-12-08T14:38:59.474Z,6.50
2022-12-08T14:42:01.849Z,6.55
2022-12-08T14:45:06.328Z,6.59
2022-12-08T14:48:26.603Z,6.55
2022-12-08T14:51:31.737Z,6.25
2022-12-08T14:54:33.836Z,6.65
2022-12-08T14:57:38.521Z,6.75
2022-12-08T15:00:44.592Z,7.06
2022-12-08T15:03:50.907Z,7.49
2022-12-08T15:06:54.403Z,6.64
2022-12-08T15:10:14.883Z,7.22
2022-12-08T15:13:16.933Z,6.43
2022-12-08T15:16:42.476Z,7.05
2022-12-08T15:19:44.590Z,6.15
2022-12-08T15:22:46.636Z,6.60
2022-12-08T15:25:48.807Z,6.26
2022-12-08T15:28:50.755Z,6.53
2022-12-08T15:31:54.314Z,6.77
2022-12-08T15:34:56.257Z,7.01
2022-12-08T15:37:58.089Z,6.53
2022-12-08T15:40:59.953Z,6.62
2022-12-08T15:44:01.847Z,7.38
2022-12-08T15:47:03.851Z,7.11
2022-12-08T15:50:07.659Z,8.11
2022-12-08T15:53:12.732Z,7.94
2022-12-08T15:56:30.372Z,8.02
2022-12-08T15:59:32.625Z,7.57
2022-12-08T16:03:05.005Z,6.33
2022-12-08T16:06:38.882Z,6.58
2022-12-08T16:09:21.107Z,6.58
2022-12-08T16:16:05.676Z,5.71
2022-12-08T16:19:09.718Z,5.94
2022-12-08T16:26:16.189Z,7.57
2022-12-08T16:29:04.394Z,7.12
2022-12-08T16:32:06.955Z,7.29
2022-12-08T16:35:08.995Z,6.88
2022-12-08T16:38:13.379Z,5.91
2022-12-08T16:41:34.880Z,6.39
2022-12-08T16:44:38.077Z,7.01
2022-12-08T16:47:44.458Z,7.25
2022-12-08T16:50:46.940Z,6.82
2022-12-08T16:53:48.776Z,7.59
2022-12-08T16:56:50.854Z,7.10
2022-12-08T16:59:52.792Z,5.60
2022-12-08T17:02:55.195Z,6.27
2022-12-08T17:05:57.049Z,6.44
2022-12-08T17:08:59.585Z,5.90
2022-12-08T17:12:04.104Z,6.03
2022-12-08T17:15:08.063Z,5.78
2022-12-08T17:18:10.141Z,6.06
2022-12-08T17:21:13.940Z,5.64
2022-12-08T17:24:20.249Z,5.81
2022-12-08T17:27:23.910Z,6.35
2022-12-08T17:30:25.772Z,6.53
2022-12-08T17:33:27.689Z,6.18
2022-12-08T17:36:29.653Z,7.31
2022-12-08T17:39:31.534Z,6.53
2022-12-08T17:42:33.921Z,6.60
2022-12-08T17:45:35.846Z,6.15
2022-12-08T17:48:38.013Z,5.97
2022-12-08T17:51:39.952Z,6.22
2022-12-08T17:54:41.780Z,6.73
2022-12-08T17:57:43.681Z,7.10
2022-12-08T18:00:45.916Z,6.71
2022-12-08T18:03:47.936Z,7.38
2022-12-08T18:06:49.758Z,7.64
2022-12-08T18:09:51.764Z,6.48
2022-12-08T18:12:53.624Z,6.69
2022-12-08T18:15:55.596Z,6.37
2022-12-08T18:18:57.810Z,5.98
2022-12-08T18:21:59.939Z,6.24
2022-12-08T18:25:02.268Z,6.38
2022-12-08T18:28:04.530Z,6.56
2022-12-08T18:31:10.452Z,6.25
2022-12-08T18:34:12.564Z,6.62
2022-12-08T18:37:14.476Z,7.15
2022-12-08T18:40:16.553Z,7.41
2022-12-08T18:43:18.477Z,7.43
2022-12-08T18:46:20.352Z,7.07
2022-12-08T18:49:22.302Z,6.20
2022-12-08T18:52:29.601Z,6.40
2022-12-08T18:55:33.589Z,6.08
2022-12-08T18:58:35.641Z,7.09
2022-12-08T19:01:38.941Z,7.75
2022-12-08T19:04:42.170Z,6.69
2022-12-08T19:07:45.825Z,6.28
2022-12-08T19:10:47.808Z,7.73
2022-12-08T19:13:50.003Z,7.36
2022-12-08T19:16:52.343Z,7.32
2022-12-08T19:19:54.264Z,7.12
2022-12-08T19:22:56.071Z,6.55
2022-12-08T19:25:57.917Z,6.29
2022-12-08T19:28:59.912Z,7.46
2022-12-08T19:32:01.832Z,6.99
2022-12-08T19:35:07.587Z,7.18
2022-12-08T19:38:09.549Z,6.78
2022-12-08T19:41:36.164Z,6.33
2022-12-08T19:44:53.044Z,6.16
2022-12-08T19:47:55.120Z,6.33
2022-12-08T19:50:57.193Z,5.93
2022-12-08T19:53:59.129Z,6.66
2022-12-08T19:57:01.033Z,7.30
2022-12-08T20:00:03.346Z,6.13
2022-12-08T20:03:05.351Z,6.88
2022-12-08T20:06:07.399Z,6.45
2022-12-08T20:09:10.490Z,6.84
2022-12-08T20:12:12.597Z,6.68
2022-12-08T20:15:14.964Z,6.66
2022-12-08T20:18:16.853Z,6.58
2022-12-08T20:21:19.538Z,6.95
2022-12-08T20:24:21.825Z,6.93
2022-12-08T20:27:23.944Z,7.18
2022-12-08T20:30:25.808Z,5.97
2022-12-08T20:33:27.810Z,6.07
2022-12-08T20:36:30.030Z,6.63
2022-12-08T20:39:31.970Z,7.11
2022-12-08T20:42:33.908Z,5.85
2022-12-08T20:45:36.180Z,7.10
2022-12-08T20:48:38.667Z,7.15
2022-12-08T20:51:41.548Z,6.39
2022-12-08T20:54:43.437Z,6.30
2022-12-08T20:57:45.304Z,6.33
2022-12-08T21:00:47.469Z,6.56
2022-12-08T21:03:50.342Z,6.09
2022-12-08T21:06:52.519Z,6.49
2022-12-08T21:09:54.789Z,7.16
2022-12-08T21:12:56.714Z,6.96
2022-12-08T21:15:58.619Z,7.00
2022-12-08T21:19:00.711Z,7.17
2022-12-08T21:22:02.777Z,6.98
2022-12-08T21:25:04.790Z,6.99
2022-12-08T21:28:06.783Z,6.98
2022-12-08T21:31:09.445Z,7.13
2022-12-08T21:34:11.500Z,6.19
2022-12-08T21:37:13.639Z,6.15
2022-12-08T21:40:15.680Z,5.19
2022-12-08T21:43:17.528Z,5.60
2022-12-08T21:46:21.279Z,5.23
2022-12-08T21:49:23.589Z,6.00
2022-12-08T21:52:26.008Z,6.28
2022-12-08T21:55:28.076Z,6.45
2022-12-08T21:58:32.756Z,6.01
2022-12-08T22:01:35.032Z,5.78
2022-12-08T22:04:37.231Z,6.32
2022-12-08T22:07:39.909Z,6.68
2022-12-08T22:10:46.626Z,6.21
2022-12-08T22:13:48.649Z,6.24
2022-12-08T22:16:50.709Z,6.97
2022-12-08T22:19:52.620Z,7.45
2022-12-08T22:22:54.536Z,6.96
2022-12-08T22:25:59.659Z,7.02
2022-12-08T22:29:01.695Z,7.01
2022-12-08T22:32:03.960Z,6.54
2022-12-08T22:35:06.044Z,7.09
2022-12-08T22:38:07.857Z,6.57
2022-12-08T22:41:09.825Z,6.30
2022-12-08T22:44:12.295Z,6.39
2022-12-08T22:47:14.248Z,7.36
2022-12-08T22:50:16.150Z,7.75
2022-12-08T22:53:17.985Z,6.79
2022-12-08T22:56:19.866Z,6.86
2022-12-08T22:59:21.934Z,6.60
2022-12-08T23:02:23.806Z,7.13
2022-12-08T23:05:25.759Z,6.63
2022-12-08T23:08:28.350Z,6.99
2022-12-08T23:11:30.734Z,7.72
2022-12-08T23:14:32.557Z,6.36
2022-12-08T23:17:34.807Z,6.93
2022-12-08T23:20:36.811Z,6.32
2022-12-08T23:23:38.698Z,6.87
2022-12-08T23:26:40.643Z,7.12
2022-12-08T23:29:42.521Z,7.54
2022-12-08T23:32:44.585Z,7.06
2022-12-08T23:35:54.624Z,7.43
2022-12-08T23:38:56.556Z,7.64
2022-12-08T23:41:58.400Z,7.26
2022-12-08T23:45:00.382Z,7.50
2022-12-08T23:48:02.329Z,7.31
2022-12-08T23:51:04.124Z,7.49
2022-12-08T23:54:06.604Z,7.26
2022-12-08T23:57:08.779Z,7.35
